Time;durP1;ratioP1;P1;durP2;ratioP2;P2;SDS_P1;SDS_P2;PMS_P1;PMS_P2;Temp;Humidity;BMP_temperature;BMP_pressure;BME280_temperature;BME280_humidity;BME280_pressure;Samples;Min_cycle;Max_cycle;Signal;HPM_P1;HPM_P2
2022/02/13 00:01:46;;;;;;;25.38;16.08;;;;;;;8.58;67.79;101192.25;5054552;28;20045;-77
2022/02/13 00:04:15;;;;;;;26.20;14.77;;;;;;;8.61;67.78;101191.56;5055455;28;20052;-77
2022/02/13 00:06:43;;;;;;;21.40;14.20;;;;;;;8.63;67.89;101205.13;5056277;28;20495;-77
2022/02/13 00:09:11;;;;;;;24.40;14.43;;;;;;;8.57;67.74;101192.53;5057337;28;20029;-76
2022/02/13 00:11:37;;;;;;;23.55;15.25;;;;;;;8.55;68.49;101192.88;5057117;28;20032;-77
2022/02/13 00:14:05;;;;;;;46.53;21.38;;;;;;;8.55;68.63;101197.59;5056114;28;20029;-77
2022/02/13 00:16:30;;;;;;;35.67;19.55;;;;;;;8.46;68.85;101194.81;5056951;28;20048;-76
2022/02/13 00:18:59;;;;;;;28.95;17.83;;;;;;;8.52;68.03;101198.25;5056350;28;20025;-76
2022/02/13 00:21:30;;;;;;;29.48;15.63;;;;;;;8.57;67.88;101192.53;5056509;28;20032;-76
2022/02/13 00:23:55;;;;;;;20.95;12.77;;;;;;;8.61;67.93;101191.56;5055287;28;20068;-77
2022/02/13 00:26:21;;;;;;;19.25;12.70;;;;;;;8.53;67.99;101194.34;5055323;28;20033;-76
2022/02/13 00:28:47;;;;;;;22.33;13.68;;;;;;;8.50;67.91;101201.34;5056441;28;20040;-77
2022/02/13 00:31:12;;;;;;;23.20;12.45;;;;;;;8.43;68.75;101195.47;5056647;28;20029;-77
2022/02/13 00:33:38;;;;;;;24.50;13.25;;;;;;;8.44;68.71;101190.75;5057097;28;20110;-77
2022/02/13 00:36:04;;;;;;;19.83;12.10;;;;;;;8.40;68.49;101201.66;5057621;28;20125;-77
2022/02/13 00:38:29;;;;;;;22.10;13.10;;;;;;;8.40;68.88;101202.47;5057404;28;20456;-77
2022/02/13 00:41:00;;;;;;;20.60;12.30;;;;;;;8.35;69.04;101202.59;5038566;28;20106;-78
2022/02/13 00:43:30;;;;;;;17.15;11.93;;;;;;;8.35;68.96;101199.81;5054688;28;20115;-77
2022/02/13 00:45:56;;;;;;;23.75;14.98;;;;;;;8.38;69.28;101203.94;5055824;28;20061;-77
2022/02/13 00:48:24;;;;;;;29.25;17.33;;;;;;;8.36;69.21;101198.72;5054677;28;20040;-78
2022/02/13 00:50:52;;;;;;;34.83;20.35;;;;;;;8.40;68.63;101202.47;5055982;28;20025;-76
2022/02/13 00:53:18;;;;;;;35.17;20.90;;;;;;;8.37;68.65;101197.59;5057641;28;20036;-76
2022/02/13 00:55:43;;;;;;;28.17;20.65;;;;;;;8.42;68.94;101198.59;5058468;28;20025;-76
2022/02/13 00:58:09;;;;;;;25.30;16.48;;;;;;;8.41;68.54;101197.75;5057889;28;20463;-76
2022/02/13 01:00:34;;;;;;;24.48;13.90;;;;;;;8.46;68.45;101202.31;5058182;28;20029;-76
2022/02/13 01:03:02;;;;;;;20.08;13.63;;;;;;;8.34;68.74;101198.19;5060280;28;20036;-76
2022/02/13 01:05:27;;;;;;;20.10;12.73;;;;;;;8.35;69.00;101194.28;5062163;28;20025;-76
2022/02/13 01:07:53;;;;;;;23.02;13.05;;;;;;;8.34;68.73;101198.19;5061434;28;20033;-76
2022/02/13 01:10:28;;;;;;;19.67;13.65;;;;;;;8.32;68.85;101194.94;5061726;28;20033;-78
2022/02/13 01:12:54;;;;;;;21.55;13.32;;;;;;;8.27;68.75;101192.31;5061999;28;20434;-77
2022/02/13 01:15:21;;;;;;;21.08;13.70;;;;;;;8.37;68.19;101196.78;5062394;28;20032;-76
2022/02/13 01:17:52;;;;;;;20.70;12.70;;;;;;;8.32;68.93;101188.56;5061793;28;20060;-76
2022/02/13 01:20:23;;;;;;;19.20;10.93;;;;;;;8.36;68.81;101190.41;5061758;28;20024;-76
2022/02/13 01:22:52;;;;;;;25.38;12.20;;;;;;;8.33;68.42;101188.25;5061808;28;20135;-76
2022/02/13 01:25:20;;;;;;;16.58;10.93;;;;;;;8.33;69.38;101193.78;5058962;28;20498;-76
2022/02/13 01:27:49;;;;;;;17.13;11.25;;;;;;;8.35;69.03;101187.91;5062160;28;20041;-76
2022/02/13 01:30:17;;;;;;;21.80;11.57;;;;;;;8.30;69.64;101188.88;5061315;28;20032;-76
2022/02/13 01:32:48;;;;;;;17.70;11.95;;;;;;;8.37;69.50;101192.03;5046283;28;20037;-77
2022/02/13 01:35:14;;;;;;;15.15;11.07;;;;;;;8.38;68.51;101188.13;5061589;28;20112;-77
2022/02/13 01:37:45;;;;;;;15.10;10.27;;;;;;;8.40;68.60;101185.84;5062227;28;20056;-76
2022/02/13 01:40:17;;;;;;;14.73;9.82;;;;;;;8.42;68.69;101193.03;5062375;28;20033;-76
2022/02/13 01:42:42;;;;;;;16.30;10.52;;;;;;;8.47;68.72;101195.63;5061417;28;20060;-76
2022/02/13 01:45:11;;;;;;;17.77;9.88;;;;;;;8.54;68.44;101184.88;5062070;28;20025;-76
2022/02/13 01:47:38;;;;;;;12.07;8.70;;;;;;;8.45;68.27;101184.88;5062488;28;20025;-77
2022/02/13 01:50:07;;;;;;;22.50;10.00;;;;;;;8.44;68.69;101176.88;5064094;28;20033;-76
2022/02/13 01:52:33;;;;;;;19.27;10.20;;;;;;;8.48;69.13;101186.19;5062843;28;20055;-77
2022/02/13 01:55:05;;;;;;;16.23;10.52;;;;;;;8.49;68.22;101183.09;5062922;28;20515;-78
2022/02/13 01:57:31;;;;;;;15.52;9.48;;;;;;;8.47;68.79;101181.75;5060721;28;20514;-77
2022/02/13 01:59:58;;;;;;;20.52;10.20;;;;;;;8.49;68.33;101180.31;5058555;28;20033;-77
2022/02/13 02:02:31;;;;;;;14.75;9.82;;;;;;;8.52;68.85;101176.06;5061234;28;20036;-76
2022/02/13 02:04:57;;;;;;;17.23;10.60;;;;;;;8.55;68.57;101170.69;5059667;28;20096;-76
2022/02/13 02:07:28;;;;;;;13.50;9.32;;;;;;;8.56;68.30;101169.53;5058807;28;20033;-76
2022/02/13 02:09:59;;;;;;;14.38;9.90;;;;;;;8.55;68.59;101169.88;5059481;28;20025;-76
2022/02/13 02:12:28;;;;;;;13.60;9.73;;;;;;;8.60;68.63;101169.72;5059469;28;20128;-76
2022/02/13 02:14:53;;;;;;;17.23;9.27;;;;;;;8.69;68.19;101170.53;5043076;28;20029;-76
2022/02/13 02:17:22;;;;;;;15.00;9.38;;;;;;;8.68;67.87;101166.09;5060206;28;20037;-76
2022/02/13 02:19:50;;;;;;;15.27;9.15;;;;;;;8.77;67.62;101161.38;5060120;28;20379;-76
2022/02/13 02:22:24;;;;;;;14.73;8.90;;;;;;;8.75;67.54;101162.88;5060387;28;20045;-75
2022/02/13 02:24:55;;;;;;;12.82;8.25;;;;;;;8.73;67.96;101157.63;5060540;28;20056;-76
2022/02/13 02:27:21;;;;;;;14.70;8.82;;;;;;;8.81;67.97;101161.56;5059729;28;20033;-76
2022/02/13 02:29:49;;;;;;;12.20;8.32;;;;;;;8.78;67.33;101162.19;5060027;28;20112;-76
2022/02/13 02:32:17;;;;;;;11.30;8.70;;;;;;;8.82;67.29;101152.91;5059969;28;20464;-76
2022/02/13 02:34:43;;;;;;;15.20;9.60;;;;;;;8.81;67.54;101156.81;5059624;28;20033;-76
2022/02/13 02:37:13;;;;;;;13.93;8.07;;;;;;;8.99;66.30;101154.03;5059470;28;20063;-77
2022/02/13 02:39:39;;;;;;;12.60;7.55;;;;;;;8.95;66.43;101150.25;5060096;28;20075;-76
2022/02/13 02:42:11;;;;;;;19.25;8.48;;;;;;;8.92;66.86;101160.88;5060624;28;20064;-76
2022/02/13 02:44:37;;;;;;;16.77;9.13;;;;;;;8.88;66.64;101151.56;5061048;28;20064;-77
2022/02/13 02:47:05;;;;;;;11.88;8.60;;;;;;;8.91;67.00;101153.72;5060893;28;20423;-76
2022/02/13 02:49:33;;;;;;;14.70;9.60;;;;;;;8.93;66.30;101147.81;5061658;28;20096;-76
2022/02/13 02:52:02;;;;;;;12.00;7.63;;;;;;;8.96;66.98;101149.16;5061249;28;20163;-76
2022/02/13 02:54:30;;;;;;;11.80;7.85;;;;;;;9.00;66.00;101147.31;5061095;28;20033;-76
2022/02/13 02:57:01;;;;;;;14.63;7.75;;;;;;;8.97;66.25;101150.78;5062023;28;20128;-76
2022/02/13 02:59:29;;;;;;;12.80;7.82;;;;;;;8.89;66.21;101152.38;5061697;28;20063;-77
2022/02/13 03:01:55;;;;;;;12.05;8.00;;;;;;;9.00;66.16;101159.25;5061789;28;20036;-77
2022/02/13 03:04:20;;;;;;;12.63;7.90;;;;;;;8.91;66.34;101156.47;5062260;28;20037;-77
2022/02/13 03:06:48;;;;;;;14.90;7.57;;;;;;;8.80;66.32;101155.19;5062642;28;20029;-77
2022/02/13 03:09:16;;;;;;;12.70;7.47;;;;;;;8.83;66.73;101148.97;5062116;28;20032;-77
2022/02/13 03:11:45;;;;;;;10.80;7.88;;;;;;;8.78;66.69;101154.69;5061500;28;20024;-76
2022/02/13 03:14:10;;;;;;;12.65;6.97;;;;;;;8.78;66.34;101157.47;5061120;28;20033;-77
2022/02/13 03:16:39;;;;;;;14.38;7.38;;;;;;;8.83;66.48;101157.28;5062131;28;20036;-76
2022/02/13 03:19:04;;;;;;;8.93;6.82;;;;;;;8.84;67.15;101160.88;5062298;28;20064;-76
2022/02/13 03:21:32;;;;;;;12.57;9.35;;;;;;;8.85;66.50;101159.75;5061733;28;20048;-77
2022/02/13 03:24:07;;;;;;;18.30;9.18;;;;;;;8.85;66.68;101155.03;5061776;28;20065;-77
2022/02/13 03:26:33;;;;;;;23.50;14.50;;;;;;;8.83;66.88;101165.63;5060991;28;20032;-76
2022/02/13 03:28:58;;;;;;;55.47;27.50;;;;;;;8.83;67.00;101160.06;5061935;28;20040;-77
2022/02/13 03:31:29;;;;;;;44.25;24.05;;;;;;;8.82;66.65;101160.41;5061248;28;20053;-76
2022/02/13 03:33:58;;;;;;;46.90;23.90;;;;;;;8.84;66.40;101156.19;5061593;28;20093;-76
2022/02/13 03:36:25;;;;;;;30.58;19.38;;;;;;;8.79;67.36;101161.88;5061523;28;20024;-77
2022/02/13 03:39:00;;;;;;;15.68;10.70;;;;;;;8.75;67.37;101154.53;5061528;28;20071;-76
2022/02/13 03:41:30;;;;;;;13.73;8.85;;;;;;;8.82;66.51;101163.19;5061504;28;20036;-77
2022/02/13 03:43:56;;;;;;;8.70;7.57;;;;;;;8.78;66.64;101162.19;5062544;28;20060;-77
2022/02/13 03:46:23;;;;;;;14.40;6.95;;;;;;;8.74;66.59;101156.50;5061302;28;20032;-76
2022/02/13 03:48:49;;;;;;;11.90;6.97;;;;;;;8.67;66.52;101156.16;5059793;28;20037;-76
2022/02/13 03:51:16;;;;;;;9.88;5.97;;;;;;;8.70;65.92;101155.53;5061568;28;20051;-77
2022/02/13 03:53:42;;;;;;;7.72;5.93;;;;;;;8.72;65.58;101169.06;5061098;28;20090;-76
2022/02/13 03:56:10;;;;;;;9.15;6.35;;;;;;;8.66;65.86;101168.41;5061042;28;20111;-77
2022/02/13 03:58:38;;;;;;;11.60;6.97;;;;;;;8.72;65.84;101160.72;5062485;28;20033;-76
2022/02/13 04:01:09;;;;;;;8.70;6.40;;;;;;;8.71;65.64;101171.03;5062257;28;20031;-76
2022/02/13 04:03:40;;;;;;;12.63;7.57;;;;;;;8.73;66.54;101154.84;5062681;28;20071;-76
2022/02/13 04:06:06;;;;;;;9.25;6.90;;;;;;;8.75;66.51;101169.22;5061617;28;20025;-76
2022/02/13 04:08:34;;;;;;;8.32;6.55;;;;;;;8.64;66.75;101171.50;5062004;28;20064;-76
2022/02/13 04:11:00;;;;;;;9.57;6.55;;;;;;;8.60;66.33;101172.50;5062233;28;20017;-76
2022/02/13 04:13:28;;;;;;;9.45;7.13;;;;;;;8.64;66.60;101174.28;5063956;28;20021;-76
2022/02/13 04:15:56;;;;;;;11.77;7.70;;;;;;;8.61;67.30;101174.94;5062609;28;20090;-76
2022/02/13 04:18:24;;;;;;;9.10;7.07;;;;;;;8.62;66.57;101170.19;5061517;28;20033;-76
2022/02/13 04:20:50;;;;;;;13.85;7.97;;;;;;;8.59;66.72;101163.34;5061693;28;20461;-76
2022/02/13 04:23:18;;;;;;;15.13;9.88;;;;;;;8.54;66.61;101163.50;5061442;28;20052;-76
2022/02/13 04:25:43;;;;;;;13.35;9.90;;;;;;;8.53;66.87;101161.88;5061972;28;20029;-76
2022/02/13 04:28:09;;;;;;;26.05;8.85;;;;;;;8.65;66.41;101166.78;5061449;28;20539;-77
2022/02/13 04:30:40;;;;;;;9.43;7.22;;;;;;;8.49;66.66;101165.63;5060434;28;20048;-77
2022/02/13 04:33:06;;;;;;;9.57;7.30;;;;;;;8.53;67.22;101167.44;5060073;28;20033;-76
2022/02/13 04:35:33;;;;;;;14.70;9.95;;;;;;;8.53;66.88;101169.38;5059974;28;20096;-76
2022/02/13 04:38:05;;;;;;;14.10;9.20;;;;;;;8.51;67.46;101164.16;5059981;28;20044;-77
2022/02/13 04:40:30;;;;;;;14.32;9.07;;;;;;;8.43;67.93;101155.84;5059984;28;20087;-76
2022/02/13 04:42:56;;;;;;;11.52;6.93;;;;;;;8.31;67.54;101157.25;5060195;28;20463;-76
2022/02/13 04:45:25;;;;;;;13.98;6.40;;;;;;;8.34;67.29;101159.38;5057715;28;20053;-76
2022/02/13 04:47:51;;;;;;;8.73;5.72;;;;;;;8.24;67.80;101156.91;5055850;28;20120;-76
2022/02/13 04:50:21;;;;;;;10.32;7.72;;;;;;;8.19;68.13;101153.47;5057087;28;20420;-76
2022/02/13 04:52:48;;;;;;;9.98;6.47;;;;;;;8.26;67.68;101151.88;5057893;28;20055;-76
2022/02/13 04:55:14;;;;;;;8.35;5.47;;;;;;;8.38;67.08;101154.84;5056562;28;20021;-76
2022/02/13 04:57:42;;;;;;;9.20;6.32;;;;;;;8.29;66.77;101148.44;5056649;28;20032;-76
2022/02/13 05:00:11;;;;;;;12.77;6.82;;;;;;;8.15;67.20;101150.53;5056141;28;20025;-76
2022/02/13 05:02:37;;;;;;;9.50;6.20;;;;;;;8.14;68.16;101154.44;5056813;28;20037;-76
2022/02/13 05:05:03;;;;;;;10.13;7.10;;;;;;;8.13;67.56;101152.81;5056504;28;20106;-76
2022/02/13 05:07:34;;;;;;;11.32;6.07;;;;;;;8.16;67.45;101152.19;5056365;28;20368;-76
2022/02/13 05:10:00;;;;;;;11.88;6.97;;;;;;;8.16;67.28;101166.03;5057485;28;20025;-76
2022/02/13 05:12:33;;;;;;;8.77;6.35;;;;;;;8.09;67.77;101157.34;5055906;28;20058;-76
2022/02/13 05:14:59;;;;;;;11.43;6.05;;;;;;;7.95;67.91;101156.69;5056633;28;20087;-76
2022/02/13 05:17:27;;;;;;;13.00;7.45;;;;;;;7.95;68.16;101162.22;5055740;28;20387;-76
2022/02/13 05:19:55;;;;;;;11.07;7.32;;;;;;;8.04;68.40;101160.28;5056004;28;20029;-76
2022/02/13 05:22:21;;;;;;;9.75;6.78;;;;;;;8.00;68.39;101157.34;5055289;28;20056;-76
2022/02/13 05:24:48;;;;;;;14.00;7.65;;;;;;;7.98;68.18;101167.13;5055254;28;20040;-76
2022/02/13 05:27:16;;;;;;;14.50;8.65;;;;;;;7.88;68.78;101166.28;5055817;28;20029;-76
2022/02/13 05:29:44;;;;;;;13.02;8.40;;;;;;;7.85;68.97;101161.38;5055073;28;20099;-76
2022/02/13 05:32:12;;;;;;;14.52;8.90;;;;;;;7.80;69.11;101164.28;5055310;28;20056;-76
2022/02/13 05:34:40;;;;;;;10.93;7.55;;;;;;;7.74;68.95;101142.59;5055063;28;20032;-76
2022/02/13 05:37:08;;;;;;;12.90;7.75;;;;;;;7.86;67.89;101159.41;5055176;28;20040;-76
2022/02/13 05:39:36;;;;;;;10.90;7.03;;;;;;;7.72;68.40;101142.09;5055881;28;20035;-76
2022/02/13 05:42:07;;;;;;;13.93;6.75;;;;;;;7.78;68.08;101161.03;5054661;28;20053;-76
2022/02/13 05:44:32;;;;;;;11.20;6.90;;;;;;;7.74;68.67;101171.13;5054644;28;20029;-76
2022/02/13 05:47:03;;;;;;;16.15;6.72;;;;;;;7.72;69.00;101176.13;5055647;28;20083;-76
2022/02/13 05:49:28;;;;;;;10.18;6.40;;;;;;;7.66;69.49;101177.41;5057583;28;20032;-76
2022/02/13 05:51:59;;;;;;;7.65;6.35;;;;;;;7.60;69.00;101173.16;5057720;28;20025;-76
2022/02/13 05:54:26;;;;;;;8.27;6.45;;;;;;;7.55;69.32;101168.56;5058163;28;20021;-76
2022/02/13 05:56:52;;;;;;;12.80;6.90;;;;;;;7.50;69.75;101167.91;5058840;28;20032;-76
2022/02/13 05:59:23;;;;;;;10.93;6.78;;;;;;;7.59;69.74;101183.44;5058629;28;20533;-76
2022/02/13 06:01:49;;;;;;;10.45;7.15;;;;;;;7.60;69.22;101178.69;5057678;28;20029;-76
2022/02/13 06:04:21;;;;;;;12.93;7.32;;;;;;;7.54;70.09;101179.97;5058798;28;20052;-76
2022/02/13 06:06:51;;;;;;;14.18;7.35;;;;;;;7.55;69.62;101181.59;5057822;28;20037;-76
2022/02/13 06:09:18;;;;;;;10.35;7.82;;;;;;;7.52;69.61;101173.94;5058578;28;20025;-76
2022/02/13 06:11:44;;;;;;;14.55;8.77;;;;;;;7.61;69.95;101183.09;5058998;28;20028;-76
2022/02/13 06:14:11;;;;;;;13.75;8.40;;;;;;;7.93;68.86;101194.97;5059359;28;20025;-76
2022/02/13 06:16:39;;;;;;;14.73;7.28;;;;;;;8.14;68.32;101185.75;5059976;28;20037;-76
2022/02/13 06:19:05;;;;;;;10.75;7.57;;;;;;;8.39;67.15;101200.03;5060091;28;20051;-76
2022/02/13 06:21:31;;;;;;;10.38;7.47;;;;;;;8.60;66.04;101191.91;5059458;28;20102;-76
2022/02/13 06:24:00;;;;;;;12.25;7.30;;;;;;;8.88;65.30;101195.97;5058775;28;20056;-76
2022/02/13 06:26:31;;;;;;;13.00;6.75;;;;;;;9.17;64.21;101197.28;5058204;28;20028;-76
2022/02/13 06:28:58;;;;;;;19.35;7.95;;;;;;;9.39;63.47;101193.50;5057831;28;20060;-76
2022/02/13 06:31:24;;;;;;;13.52;8.45;;;;;;;9.64;62.52;101183.44;5056018;28;20029;-76
2022/02/13 06:33:50;;;;;;;14.82;9.52;;;;;;;9.88;61.73;101194.78;5055579;28;20103;-76
2022/02/13 06:36:15;;;;;;;28.10;17.65;;;;;;;10.07;60.36;101201.91;5057931;28;20025;-77
2022/02/13 06:38:41;;;;;;;21.25;14.05;;;;;;;10.31;59.54;101191.00;5059521;28;20123;-76
2022/02/13 06:41:06;;;;;;;27.38;14.77;;;;;;;10.62;59.23;101201.75;5057849;28;20468;-76
2022/02/13 06:43:33;;;;;;;23.35;12.05;;;;;;;10.94;57.37;101199.38;5058981;28;20028;-77
2022/02/13 06:46:02;;;;;;;20.85;10.80;;;;;;;11.33;57.41;101192.47;5059264;28;20028;-78
2022/02/13 06:48:29;;;;;;;20.63;11.95;;;;;;;11.61;55.60;101194.63;5058167;28;20063;-77
2022/02/13 06:50:55;;;;;;;23.17;12.05;;;;;;;11.93;55.19;101188.22;5058874;28;20033;-76
2022/02/13 06:53:22;;;;;;;20.30;11.25;;;;;;;12.25;52.82;101194.84;5060351;28;20483;-76
2022/02/13 06:55:48;;;;;;;20.83;12.00;;;;;;;12.62;52.79;101199.53;5059523;28;20051;-76
2022/02/13 06:58:13;;;;;;;18.70;10.38;;;;;;;12.95;51.45;101204.94;5057504;28;20519;-76
2022/02/13 07:00:40;;;;;;;15.68;9.68;;;;;;;13.28;50.87;101202.72;5059450;28;20111;-76
2022/02/13 07:03:07;;;;;;;16.50;9.55;;;;;;;13.50;49.77;101209.72;5060257;28;20060;-76
2022/02/13 07:05:33;;;;;;;14.48;10.43;;;;;;;14.01;48.94;101207.06;5060535;28;20043;-76
2022/02/13 07:07:58;;;;;;;18.33;9.50;;;;;;;14.15;47.63;101201.81;5059989;28;20119;-76
2022/02/13 07:10:24;;;;;;;17.80;11.40;;;;;;;14.39;46.74;101200.78;5056830;28;20060;-76
2022/02/13 07:12:52;;;;;;;17.27;10.27;;;;;;;14.71;46.21;101202.75;5057729;28;20033;-76
2022/02/13 07:15:20;;;;;;;14.60;9.30;;;;;;;14.82;45.79;101206.59;5058565;28;20086;-76
2022/02/13 07:17:48;;;;;;;17.30;10.13;;;;;;;14.94;45.68;101203.63;5057273;28;20028;-76
2022/02/13 07:20:14;;;;;;;16.83;9.93;;;;;;;15.26;45.34;101221.13;5059936;28;20059;-77
2022/02/13 07:22:40;;;;;;;13.35;9.63;;;;;;;15.31;44.98;101215.22;5058931;28;20041;-77
2022/02/13 07:25:08;;;;;;;16.35;9.68;;;;;;;15.70;44.19;101217.97;5059372;28;20029;-77
2022/02/13 07:27:35;;;;;;;13.77;10.25;;;;;;;15.97;43.49;101211.25;5060894;28;20029;-77
2022/02/13 07:30:05;;;;;;;16.38;9.70;;;;;;;16.10;42.59;101214.69;5059296;28;20031;-78
2022/02/13 07:32:33;;;;;;;12.77;10.63;;;;;;;16.35;42.40;101225.50;5061557;28;20048;-78
2022/02/13 07:34:59;;;;;;;13.10;8.90;;;;;;;15.93;43.06;101220.81;5057888;28;20375;-79
2022/02/13 07:37:24;;;;;;;11.98;9.10;;;;;;;15.80;43.19;101219.38;5056468;28;20032;-79
2022/02/13 07:39:50;;;;;;;14.35;7.88;;;;;;;16.07;43.04;101218.25;5056400;28;20053;-77
2022/02/13 07:42:17;;;;;;;8.48;7.00;;;;;;;16.07;41.68;101215.44;5055440;28;20092;-77
2022/02/13 07:44:43;;;;;;;9.90;7.30;;;;;;;16.50;41.80;101216.13;5054411;28;20024;-77
2022/02/13 07:47:08;;;;;;;12.60;6.80;;;;;;;16.56;40.00;101214.59;5053678;28;20032;-77
2022/02/13 07:49:36;;;;;;;12.10;6.32;;;;;;;15.87;42.58;101217.53;5053618;28;20040;-77
2022/02/13 07:52:02;;;;;;;10.43;5.75;;;;;;;15.44;43.56;101219.47;5054133;28;20029;-77
2022/02/13 07:54:29;;;;;;;13.30;7.78;;;;;;;15.29;43.84;101220.41;5054117;28;20364;-77
2022/02/13 07:56:54;;;;;;;7.38;5.90;;;;;;;15.43;43.78;101219.84;5053674;28;20055;-77
2022/02/13 07:59:22;;;;;;;11.80;7.47;;;;;;;15.30;44.24;101210.78;5053950;28;20028;-77
2022/02/13 08:01:48;;;;;;;9.05;6.13;;;;;;;14.68;44.19;101219.09;5054263;28;20053;-77
2022/02/13 08:04:13;;;;;;;7.03;5.75;;;;;;;14.71;45.46;101217.56;5054725;28;20130;-77
2022/02/13 08:06:41;;;;;;;11.32;6.75;;;;;;;15.01;44.87;101220.59;5054345;28;20369;-77
2022/02/13 08:09:09;;;;;;;22.30;10.43;;;;;;;15.19;44.48;101216.19;5053648;28;20029;-77
2022/02/13 08:11:35;;;;;;;12.02;8.55;;;;;;;15.40;43.79;101220.59;5053287;28;20021;-77
2022/02/13 08:14:00;;;;;;;8.95;6.82;;;;;;;15.74;42.76;101223.66;5053367;28;20043;-77
2022/02/13 08:16:26;;;;;;;9.00;6.55;;;;;;;16.42;41.97;101205.97;5053305;28;20458;-78
2022/02/13 08:18:54;;;;;;;8.68;6.95;;;;;;;17.19;39.96;101225.13;5052702;28;20483;-80
2022/02/13 08:21:19;;;;;;;8.90;6.40;;;;;;;17.52;38.73;101217.88;5052997;28;20379;-78
2022/02/13 08:23:45;;;;;;;7.35;6.03;;;;;;;16.92;38.58;101232.00;5052012;28;20057;-78
2022/02/13 08:26:10;;;;;;;7.55;6.20;;;;;;;17.16;38.48;101228.72;5052745;28;20029;-78
2022/02/13 08:28:36;;;;;;;12.13;7.97;;;;;;;17.64;38.48;101233.69;5053045;28;20418;-79
2022/02/13 08:31:03;;;;;;;10.27;7.47;;;;;;;17.59;37.74;101232.03;5052700;28;20379;-79
2022/02/13 08:33:31;;;;;;;10.13;6.78;;;;;;;17.10;39.08;101213.38;5052407;28;20032;-79
2022/02/13 08:35:56;;;;;;;7.97;5.80;;;;;;;17.79;38.13;101227.84;5052193;28;20040;-80
2022/02/13 08:38:23;;;;;;;13.07;8.85;;;;;;;17.79;37.52;101227.06;5052568;28;20067;-79
2022/02/13 08:40:49;;;;;;;8.15;7.28;;;;;;;17.99;37.11;101227.63;5052919;28;20383;-79
2022/02/13 08:43:15;;;;;;;10.85;5.97;;;;;;;17.83;38.19;101227.06;5052543;28;20035;-79
2022/02/13 08:45:40;;;;;;;7.85;6.32;;;;;;;18.14;37.24;101222.94;5052874;28;20128;-79
2022/02/13 08:48:06;;;;;;;11.75;7.30;;;;;;;16.93;38.19;101223.19;5052385;28;20106;-79
2022/02/13 08:50:32;;;;;;;13.00;9.00;;;;;;;16.92;38.96;101227.19;5052322;28;20049;-80
2022/02/13 08:52:58;;;;;;;17.83;11.63;;;;;;;17.08;38.87;101223.38;5052766;28;20039;-78
2022/02/13 08:55:23;;;;;;;15.15;9.18;;;;;;;17.25;38.52;101229.22;5052422;28;20021;-79
2022/02/13 08:57:49;;;;;;;14.98;7.25;;;;;;;16.11;40.79;101221.13;5053096;28;20078;-79
2022/02/13 09:00:18;;;;;;;14.60;9.43;;;;;;;16.21;41.39;101237.34;5052649;28;20033;-78
2022/02/13 09:02:43;;;;;;;10.15;6.50;;;;;;;16.38;40.62;101230.38;5053848;28;20384;-78
2022/02/13 09:05:10;;;;;;;9.48;6.85;;;;;;;16.41;40.13;101230.44;5055489;28;20039;-78
2022/02/13 09:07:38;;;;;;;13.40;6.53;;;;;;;16.20;40.55;101232.91;5058031;28;20388;-78
2022/02/13 09:10:09;;;;;;;12.60;7.00;;;;;;;15.61;42.09;101235.03;5057596;28;20422;-78
2022/02/13 09:12:34;;;;;;;13.02;8.35;;;;;;;16.02;41.05;101241.00;5056441;28;20040;-78
2022/02/13 09:15:02;;;;;;;12.40;6.78;;;;;;;15.76;40.95;101232.50;5057801;28;20032;-78
2022/02/13 09:17:28;;;;;;;11.40;7.75;;;;;;;15.89;41.05;101231.16;5060343;28;20463;-78
2022/02/13 09:19:53;;;;;;;9.82;6.95;;;;;;;16.24;41.03;101233.75;5063472;28;20083;-78
2022/02/13 09:22:19;;;;;;;20.95;10.63;;;;;;;16.62;40.11;101235.59;5060693;28;20069;-79
2022/02/13 09:24:45;;;;;;;12.05;7.20;;;;;;;15.99;40.76;101230.53;5065394;28;20049;-78
2022/02/13 09:27:10;;;;;;;15.63;8.48;;;;;;;16.46;40.22;101232.94;5067593;28;20052;-78
2022/02/13 09:29:37;;;;;;;12.45;8.25;;;;;;;16.34;40.26;101243.53;5066316;28;20021;-78
2022/02/13 09:32:03;;;;;;;12.15;7.10;;;;;;;16.23;40.80;101235.75;5066861;28;20036;-78
2022/02/13 09:34:33;;;;;;;11.43;7.60;;;;;;;16.32;40.29;101243.94;5060963;28;20032;-78
2022/02/13 09:36:59;;;;;;;15.20;9.82;;;;;;;16.65;40.00;101240.44;5057901;28;20364;-78
2022/02/13 09:39:24;;;;;;;15.63;8.65;;;;;;;16.66;40.29;101239.22;5057805;28;20036;-78
2022/02/13 09:41:51;;;;;;;12.40;7.78;;;;;;;17.01;39.53;101240.97;5058462;28;20037;-78
2022/02/13 09:44:17;;;;;;;16.85;9.02;;;;;;;16.53;39.99;101249.09;5058524;28;20029;-79
2022/02/13 09:46:44;;;;;;;12.13;8.50;;;;;;;16.00;41.24;101242.59;5059244;28;20556;-78
2022/02/13 09:49:16;;;;;;;15.32;8.57;;;;;;;16.43;40.39;101244.09;5063077;28;20043;-78
2022/02/13 09:51:41;;;;;;;9.63;7.60;;;;;;;16.20;40.84;101244.94;5062647;28;20493;-78
2022/02/13 09:54:07;;;;;;;17.98;9.77;;;;;;;16.75;39.86;101242.63;5062996;28;20033;-78
2022/02/13 09:56:36;;;;;;;14.82;9.07;;;;;;;16.98;39.42;101245.34;5061594;28;20106;-78
2022/02/13 09:59:03;;;;;;;15.35;8.73;;;;;;;17.64;38.33;101247.75;5060257;28;20163;-77
2022/02/13 10:01:37;;;;;;;13.80;8.80;;;;;;;16.99;38.59;101237.72;5057995;28;20383;-78
2022/02/13 10:04:06;;;;;;;10.13;6.88;;;;;;;17.48;37.72;101242.34;5056517;28;20032;-80
2022/02/13 10:06:38;;;;;;;9.95;7.13;;;;;;;18.14;36.28;101246.25;5056116;28;20028;-81
2022/02/13 10:09:05;;;;;;;17.48;10.85;;;;;;;18.11;36.02;101243.41;5055192;28;20130;-81
2022/02/13 10:11:36;;;;;;;10.85;7.97;;;;;;;18.27;36.75;101249.63;5056092;28;20036;-79
2022/02/13 10:14:11;;;;;;;13.30;8.25;;;;;;;18.99;35.74;101229.16;5056449;28;20025;-80
2022/02/13 10:16:49;;;;;;;15.73;9.23;;;;;;;18.39;35.51;101234.41;5056617;28;20029;-81
2022/02/13 10:19:28;;;;;;;10.95;7.72;;;;;;;17.57;37.54;101227.97;5056482;28;20029;-80
2022/02/13 10:21:59;;;;;;;11.93;9.20;;;;;;;17.10;39.06;101223.78;5056695;28;20483;-79
2022/02/13 10:24:31;;;;;;;11.35;7.80;;;;;;;17.50;38.19;101223.06;5055720;28;20051;-81
2022/02/13 10:26:56;;;;;;;11.02;7.05;;;;;;;17.90;36.99;101219.50;5054892;28;20038;-81
2022/02/13 10:29:32;;;;;;;11.70;7.32;;;;;;;17.09;38.31;101217.38;5056245;28;20033;-78
2022/02/13 10:32:19;;;;;;;12.48;7.05;;;;;;;17.62;37.55;101219.97;5055991;28;20035;-80
2022/02/13 10:35:12;;;;;;;12.38;7.43;;;;;;;17.54;37.92;101212.69;5054213;28;20528;-79
2022/02/13 10:37:51;;;;;;;11.25;7.72;;;;;;;17.67;37.49;101219.63;5057850;28;20108;-79
2022/02/13 10:40:38;;;;;;;28.83;15.65;;;;;;;17.74;36.94;101211.31;5055228;28;20456;-79
2022/02/13 10:43:09;;;;;;;16.77;9.45;;;;;;;16.99;38.22;101209.59;5054901;28;20124;-79
2022/02/13 10:45:39;;;;;;;10.40;7.30;;;;;;;17.68;37.33;101203.56;5057514;28;20053;-79
2022/02/13 10:48:07;;;;;;;13.80;8.05;;;;;;;18.03;36.41;101197.50;5055704;28;20033;-79
2022/02/13 10:50:37;;;;;;;14.35;8.20;;;;;;;18.09;35.86;101197.94;5054576;28;20028;-80
2022/02/13 10:53:08;;;;;;;8.75;7.25;;;;;;;18.91;34.57;101192.84;5054387;28;20037;-79
2022/02/13 10:55:36;;;;;;;11.75;6.55;;;;;;;18.82;34.51;101191.22;5054176;28;20036;-80
2022/02/13 10:58:03;;;;;;;13.32;9.65;;;;;;;18.61;34.40;101168.53;5054829;28;20033;-80
2022/02/13 11:00:30;;;;;;;18.35;11.38;;;;;;;18.36;35.06;101176.00;5054472;28;20491;-81
2022/02/13 11:03:07;;;;;;;12.30;8.32;;;;;;;17.96;35.25;101172.91;5054016;28;20028;-81
2022/02/13 11:05:33;;;;;;;11.13;7.25;;;;;;;18.32;35.40;101174.00;5053994;28;20029;-80
2022/02/13 11:08:06;;;;;;;9.10;6.93;;;;;;;18.27;35.16;101156.66;5053992;28;20021;-80
2022/02/13 11:10:36;;;;;;;8.68;5.93;;;;;;;18.53;34.36;101161.22;5053642;28;20031;-79
2022/02/13 11:13:04;;;;;;;11.90;6.75;;;;;;;18.17;35.23;101155.38;5056338;28;20035;-78
2022/02/13 11:15:32;;;;;;;9.20;7.38;;;;;;;17.82;35.50;101155.06;5058054;28;20017;-78
2022/02/13 11:18:03;;;;;;;11.52;6.97;;;;;;;18.06;35.35;101148.84;5055268;28;20031;-79
2022/02/13 11:20:29;;;;;;;11.98;8.63;;;;;;;18.11;35.11;101148.50;5054369;28;20475;-79
2022/02/13 11:23:21;;;;;;;9.82;7.05;;;;;;;18.75;34.62;101134.81;5053631;28;20053;-80
2022/02/13 11:25:53;;;;;;;10.00;6.60;;;;;;;19.04;33.79;101124.44;5053933;28;20025;-78